createdAt,value
2019-03-27T00:00:19.889Z,1026.03
2019-03-27T00:01:19.851Z,1026.01
2019-03-27T00:02:19.810Z,1026.03
2019-03-27T00:03:19.785Z,1026.05
2019-03-27T00:04:19.720Z,1026.04
2019-03-27T00:05:19.696Z,1026.03
2019-03-27T00:06:19.650Z,1026.06
2019-03-27T00:07:19.592Z,1026.05
2019-03-27T00:08:19.571Z,1026.08
2019-03-27T00:09:19.498Z,1026.06
2019-03-27T00:10:19.454Z,1026.04
2019-03-27T00:11:19.408Z,1026.07
2019-03-27T00:12:19.368Z,1026.04
2019-03-27T00:13:19.350Z,1026.08
2019-03-27T00:14:19.286Z,1026.00
2019-03-27T00:15:19.246Z,1026.03
2019-03-27T00:16:19.198Z,1026.03
2019-03-27T00:17:19.147Z,1026.03
2019-03-27T00:18:19.127Z,1026.09
2019-03-27T00:19:19.061Z,1026.04
2019-03-27T00:20:19.021Z,1026.06
2019-03-27T00:21:19.008Z,1026.06
2019-03-27T00:22:18.940Z,1026.04
2019-03-27T00:23:18.888Z,1026.09
2019-03-27T00:24:18.845Z,1026.08
2019-03-27T00:25:18.805Z,1026.11
2019-03-27T00:26:18.767Z,1026.08
2019-03-27T00:27:18.742Z,1026.12
2019-03-27T00:28:18.680Z,1026.12
2019-03-27T00:29:18.634Z,1026.09
2019-03-27T00:30:18.605Z,1026.07
2019-03-27T00:31:18.567Z,1026.14
2019-03-27T00:32:18.497Z,1026.11
2019-03-27T00:33:18.453Z,1026.12
2019-03-27T00:34:18.415Z,1026.11
2019-03-27T00:35:18.369Z,1026.09
2019-03-27T00:36:18.329Z,1026.08
2019-03-27T00:37:18.303Z,1026.05
2019-03-27T00:38:18.235Z,1026.07
2019-03-27T00:39:18.193Z,1026.04
2019-03-27T00:40:18.150Z,1026.02
2019-03-27T00:41:18.098Z,1025.97
2019-03-27T00:42:18.058Z,1026.02
2019-03-27T00:43:18.037Z,1025.97
2019-03-27T00:44:17.973Z,1025.99
2019-03-27T00:45:26.355Z,1025.99
2019-03-27T00:46:17.914Z,1026.00
2019-03-27T00:47:17.850Z,1026.03
2019-03-27T00:48:17.832Z,1026.08
2019-03-27T00:49:17.753Z,1026.08
2019-03-27T00:50:17.711Z,1026.09
2019-03-27T00:51:17.670Z,1026.06
2019-03-27T00:52:17.619Z,1026.04
2019-03-27T00:53:17.584Z,1026.02
2019-03-27T00:54:17.567Z,1026.05
2019-03-27T00:55:17.494Z,1026.03
2019-03-27T00:56:17.447Z,1026.06
2019-03-27T00:57:17.434Z,1026.08
2019-03-27T00:58:17.367Z,1026.10
2019-03-27T00:59:19.266Z,1026.09
2019-03-27T01:00:17.274Z,1026.11
2019-03-27T01:01:17.232Z,1026.06
2019-03-27T01:02:17.183Z,1026.07
2019-03-27T01:03:17.141Z,1026.09
2019-03-27T01:04:17.099Z,1026.05
2019-03-27T01:05:17.090Z,1026.02
2019-03-27T01:06:17.017Z,1026.02
2019-03-27T01:07:16.976Z,1026.04
2019-03-27T01:08:16.932Z,1026.03
2019-03-27T01:09:16.881Z,1026.04
2019-03-27T01:10:16.838Z,1025.99
2019-03-27T01:11:16.825Z,1026.00
2019-03-27T01:12:16.764Z,1025.96
2019-03-27T01:13:16.709Z,1025.97
2019-03-27T01:14:16.665Z,1025.96
2019-03-27T01:15:16.620Z,1025.92
2019-03-27T01:16:16.599Z,1025.94
2019-03-27T01:17:16.537Z,1025.97
2019-03-27T01:18:16.519Z,1026.00
2019-03-27T01:19:16.453Z,1026.02
2019-03-27T01:20:16.411Z,1025.98
2019-03-27T01:21:16.358Z,1025.97
2019-03-27T01:22:16.344Z,1025.98
2019-03-27T01:23:16.271Z,1026.00
2019-03-27T01:24:16.231Z,1025.99
2019-03-27T01:25:16.191Z,1025.98
2019-03-27T01:26:16.155Z,1025.97
2019-03-27T01:27:16.095Z,1026.02
2019-03-27T01:28:16.079Z,1026.02
2019-03-27T01:29:16.015Z,1026.04
2019-03-27T01:30:15.979Z,1026.08
2019-03-27T01:31:15.930Z,1026.05
2019-03-27T01:32:15.884Z,1026.05
2019-03-27T01:33:15.860Z,1026.08
2019-03-27T01:34:15.793Z,1026.05
2019-03-27T01:35:15.751Z,1026.05
2019-03-27T01:36:15.706Z,1025.99
2019-03-27T01:37:15.662Z,1026.01
2019-03-27T01:38:15.628Z,1026.06
2019-03-27T01:39:15.604Z,1026.03
2019-03-27T01:40:15.557Z,1026.05
2019-03-27T01:41:15.488Z,1026.04
2019-03-27T01:42:15.453Z,1025.98
2019-03-27T01:43:15.428Z,1025.96
2019-03-27T01:44:15.408Z,1025.96
2019-03-27T01:45:15.312Z,1025.99
2019-03-27T01:46:15.271Z,1025.98
2019-03-27T01:47:15.221Z,1025.99
2019-03-27T01:48:15.205Z,1025.96
2019-03-27T01:49:15.146Z,1025.98
2019-03-27T01:50:15.107Z,1025.99
2019-03-27T01:51:15.056Z,1026.01
2019-03-27T01:52:15.012Z,1026.03
2019-03-27T01:53:14.963Z,1026.03
2019-03-27T01:54:14.947Z,1026.05
2019-03-27T01:55:14.876Z,1026.06
2019-03-27T01:56:14.839Z,1026.11
2019-03-27T01:57:14.807Z,1026.11
2019-03-27T01:58:14.754Z,1026.13
2019-03-27T01:59:14.706Z,1026.10
2019-03-27T02:00:14.690Z,1026.06
2019-03-27T02:01:14.621Z,1026.10
2019-03-27T02:02:14.578Z,1026.09
2019-03-27T02:03:14.537Z,1026.08
2019-03-27T02:04:14.489Z,1026.05
2019-03-27T02:05:14.444Z,1026.08
2019-03-27T02:06:14.420Z,1026.06
2019-03-27T02:07:14.358Z,1026.11
2019-03-27T02:08:14.340Z,1026.11
2019-03-27T02:09:16.196Z,1026.10
2019-03-27T02:10:14.240Z,1026.10
2019-03-27T02:11:14.184Z,1026.08
2019-03-27T02:12:14.143Z,1026.12
2019-03-27T02:13:14.094Z,1026.14
2019-03-27T02:14:14.079Z,1026.14
2019-03-27T02:15:14.019Z,1026.14
2019-03-27T02:16:13.967Z,1026.15
2019-03-27T02:17:13.917Z,1026.16
2019-03-27T02:18:13.873Z,1026.12
2019-03-27T02:19:13.833Z,1026.12
2019-03-27T02:20:13.812Z,1026.08
2019-03-27T02:21:13.751Z,1026.06
2019-03-27T02:22:13.713Z,1026.08
2019-03-27T02:23:13.663Z,1026.00
2019-03-27T02:24:13.619Z,1025.99
2019-03-27T02:25:13.576Z,1025.98
2019-03-27T02:26:13.553Z,1025.99
2019-03-27T02:27:13.491Z,1025.98
2019-03-27T02:28:13.440Z,1025.95
2019-03-27T02:29:13.400Z,1026.02
2019-03-27T02:30:13.385Z,1026.01
2019-03-27T02:31:13.335Z,1026.03
2019-03-27T02:32:13.270Z,1026.05
2019-03-27T02:33:13.232Z,1026.08
2019-03-27T02:34:13.186Z,1026.10
2019-03-27T02:35:13.147Z,1026.05
2019-03-27T02:36:13.136Z,1026.08
2019-03-27T02:37:13.056Z,1026.04
2019-03-27T02:38:13.008Z,1026.05
2019-03-27T02:39:12.963Z,1026.05
2019-03-27T02:40:12.923Z,1026.03
2019-03-27T02:41:12.883Z,1026.05
2019-03-27T02:42:12.869Z,1026.07
2019-03-27T02:43:12.797Z,1026.10
2019-03-27T02:44:12.754Z,1026.08
2019-03-27T02:45:12.728Z,1026.08
2019-03-27T02:46:24.734Z,1026.04
2019-03-27T02:47:12.621Z,1026.03
2019-03-27T02:48:14.209Z,1026.02
2019-03-27T02:49:12.530Z,1025.97
2019-03-27T02:50:12.512Z,1025.95
2019-03-27T02:51:12.444Z,1025.94
2019-03-27T02:52:12.399Z,1025.99
2019-03-27T02:53:12.382Z,1025.97
2019-03-27T02:54:12.315Z,1025.94
2019-03-27T02:55:12.285Z,1025.95
2019-03-27T02:56:12.226Z,1025.96
2019-03-27T02:57:12.177Z,1025.94
2019-03-27T02:58:12.162Z,1025.92
2019-03-27T02:59:12.089Z,1025.94
2019-03-27T03:00:12.052Z,1025.92
2019-03-27T03:01:12.023Z,1025.93
2019-03-27T03:02:11.966Z,1025.94
2019-03-27T03:03:11.913Z,1025.93
2019-03-27T03:04:11.893Z,1025.92
2019-03-27T03:05:11.839Z,1025.91
2019-03-27T03:06:11.794Z,1025.88
2019-03-27T03:07:11.744Z,1025.83
2019-03-27T03:08:11.698Z,1025.85
2019-03-27T03:09:11.680Z,1025.82
2019-03-27T03:10:11.607Z,1025.88
2019-03-27T03:11:11.563Z,1025.81
2019-03-27T03:12:11.521Z,1025.85
2019-03-27T03:13:11.483Z,1025.84
2019-03-27T03:14:11.481Z,1025.80
2019-03-27T03:15:11.393Z,1025.80
2019-03-27T03:16:11.352Z,1025.78
2019-03-27T03:17:11.297Z,1025.81
2019-03-27T03:18:11.254Z,1025.81
2019-03-27T03:19:11.215Z,1025.86
2019-03-27T03:20:11.200Z,1025.83
2019-03-27T03:21:11.122Z,1025.80
2019-03-27T03:22:11.076Z,1025.83
2019-03-27T03:23:11.033Z,1025.79
2019-03-27T03:24:10.987Z,1025.82
2019-03-27T03:25:10.970Z,1025.81
2019-03-27T03:26:10.904Z,1025.81
2019-03-27T03:27:10.870Z,1025.85
2019-03-27T03:28:10.814Z,1025.82
2019-03-27T03:29:10.763Z,1025.82
2019-03-27T03:30:10.759Z,1025.87
2019-03-27T03:31:10.701Z,1025.85
2019-03-27T03:32:10.633Z,1025.89
2019-03-27T03:33:10.623Z,1025.92
2019-03-27T03:34:10.567Z,1025.92
2019-03-27T03:35:10.508Z,1025.93
2019-03-27T03:36:10.475Z,1025.95
2019-03-27T03:37:10.418Z,1025.99
2019-03-27T03:38:10.375Z,1026.03
2019-03-27T03:39:10.349Z,1026.03
2019-03-27T03:40:10.314Z,1026.04
2019-03-27T03:41:10.232Z,1026.02
2019-03-27T03:42:10.184Z,1026.03
2019-03-27T03:43:10.142Z,1026.02
2019-03-27T03:44:10.094Z,1026.05
2019-03-27T03:45:10.058Z,1026.07
2019-03-27T03:46:10.044Z,1026.06
2019-03-27T03:47:09.969Z,1026.06
2019-03-27T03:48:09.924Z,1026.07
2019-03-27T03:50:49.139Z,1026.05
2019-03-27T03:51:49.113Z,1026.06
2019-03-27T03:52:49.057Z,1026.10
2019-03-27T03:53:49.004Z,1026.10
2019-03-27T03:54:48.961Z,1026.10
2019-03-27T03:55:48.915Z,1026.07
2019-03-27T03:56:48.892Z,1026.08
2019-03-27T03:57:48.819Z,1026.10
2019-03-27T03:58:48.775Z,1026.12
2019-03-27T03:59:48.730Z,1026.12
2019-03-27T04:00:48.692Z,1026.13
2019-03-27T04:01:48.646Z,1026.10
2019-03-27T04:02:48.624Z,1026.11
2019-03-27T04:03:48.557Z,1026.13
2019-03-27T04:04:48.503Z,1026.17
2019-03-27T04:05:48.461Z,1026.15
2019-03-27T04:06:48.420Z,1026.19
2019-03-27T04:07:48.402Z,1026.14
2019-03-27T04:08:48.326Z,1026.17
2019-03-27T04:09:48.276Z,1026.19
2019-03-27T04:10:48.247Z,1026.20
2019-03-27T04:11:48.190Z,1026.21
2019-03-27T04:12:48.150Z,1026.24
2019-03-27T04:13:48.129Z,1026.24
2019-03-27T04:14:48.066Z,1026.27
2019-03-27T04:15:48.015Z,1026.26
2019-03-27T04:16:47.969Z,1026.30
2019-03-27T04:17:47.928Z,1026.32
2019-03-27T04:18:47.872Z,1026.33
2019-03-27T04:19:47.854Z,1026.34
2019-03-27T04:20:47.790Z,1026.34
2019-03-27T04:21:47.775Z,1026.37
2019-03-27T04:22:47.692Z,1026.41
2019-03-27T04:23:47.679Z,1026.39
2019-03-27T04:24:47.609Z,1026.41
2019-03-27T04:26:07.991Z,1026.44
2019-03-27T04:26:47.518Z,1026.46
2019-03-27T04:27:47.473Z,1026.47
2019-03-27T04:28:47.423Z,1026.47
2019-03-27T04:29:47.402Z,1026.52
2019-03-27T04:30:47.331Z,1026.50
2019-03-27T04:31:47.417Z,1026.55
2019-03-27T04:32:47.247Z,1026.54
2019-03-27T04:33:47.226Z,1026.60
2019-03-27T04:34:47.571Z,1026.55
2019-03-27T04:35:47.113Z,1026.60
2019-03-27T04:36:47.073Z,1026.63
2019-03-27T04:37:47.022Z,1026.63
2019-03-27T04:38:47.007Z,1026.64
2019-03-27T04:39:46.933Z,1026.61
2019-03-27T04:40:46.896Z,1026.62
2019-03-27T04:41:46.836Z,1026.63
2019-03-27T04:42:46.791Z,1026.62
2019-03-27T04:43:46.746Z,1026.66
2019-03-27T04:44:46.729Z,1026.69
2019-03-27T04:45:46.662Z,1026.66
2019-03-27T04:46:46.620Z,1026.64
2019-03-27T04:47:46.576Z,1026.62
2019-03-27T04:48:46.521Z,1026.64
2019-03-27T04:49:46.499Z,1026.63
2019-03-27T04:50:46.434Z,1026.66
2019-03-27T04:51:46.388Z,1026.66
2019-03-27T04:52:46.349Z,1026.65
2019-03-27T04:53:46.304Z,1026.66
2019-03-27T04:54:46.279Z,1026.64
2019-03-27T04:55:46.208Z,1026.63
2019-03-27T04:56:46.172Z,1026.63
2019-03-27T04:57:46.150Z,1026.60
2019-03-27T04:58:46.081Z,1026.63
2019-03-27T04:59:46.040Z,1026.58
2019-03-27T05:00:45.985Z,1026.63
2019-03-27T05:01:45.944Z,1026.59
2019-03-27T05:02:45.921Z,1026.57
2019-03-27T05:03:45.851Z,1026.58
2019-03-27T05:04:45.814Z,1026.60
2019-03-27T05:05:45.819Z,1026.59
2019-03-27T05:06:45.727Z,1026.62
2019-03-27T05:07:45.682Z,1026.63
2019-03-27T05:08:45.630Z,1026.63
2019-03-27T05:09:45.584Z,1026.64
2019-03-27T05:10:45.573Z,1026.65
2019-03-27T05:11:45.506Z,1026.65
2019-03-27T05:12:45.481Z,1026.69
2019-03-27T05:13:45.407Z,1026.70
2019-03-27T05:14:45.361Z,1026.70
2019-03-27T05:15:45.320Z,1026.70
2019-03-27T05:16:45.280Z,1026.75
2019-03-27T05:17:46.552Z,1026.73
2019-03-27T05:18:45.215Z,1026.73
2019-03-27T05:19:45.148Z,1026.75
2019-03-27T05:20:45.098Z,1026.75
2019-03-27T05:21:45.077Z,1026.77
2019-03-27T05:22:45.008Z,1026.74
2019-03-27T05:23:44.964Z,1026.72
2019-03-27T05:24:44.926Z,1026.71
2019-03-27T05:25:44.904Z,1026.69
2019-03-27T05:26:44.829Z,1026.71
2019-03-27T05:27:44.787Z,1026.71
2019-03-27T05:28:44.747Z,1026.70
2019-03-27T05:29:44.732Z,1026.70
2019-03-27T05:30:44.660Z,1026.68
2019-03-27T05:31:44.615Z,1026.67
2019-03-27T05:32:44.566Z,1026.66
2019-03-27T05:33:44.520Z,1026.69
2019-03-27T05:34:44.480Z,1026.70
2019-03-27T05:35:44.457Z,1026.73
2019-03-27T05:36:44.420Z,1026.73
2019-03-27T05:37:44.348Z,1026.74
2019-03-27T05:38:44.306Z,1026.78
2019-03-27T05:39:44.283Z,1026.82
2019-03-27T05:40:44.210Z,1026.87
2019-03-27T05:41:44.166Z,1026.83
2019-03-27T05:42:44.160Z,1026.82
2019-03-27T05:43:44.085Z,1026.83
2019-03-27T05:44:44.031Z,1026.91
2019-03-27T05:45:44.020Z,1026.90
2019-03-27T05:46:43.946Z,1026.97
2019-03-27T05:47:43.900Z,1027.02
2019-03-27T05:48:43.864Z,1027.01
2019-03-27T05:49:43.818Z,1027.01
2019-03-27T05:50:43.776Z,1027.01
2019-03-27T05:51:43.757Z,1027.02
2019-03-27T05:52:43.680Z,1027.00
2019-03-27T05:53:43.639Z,1027.02
2019-03-27T05:54:43.622Z,1027.06
2019-03-27T05:55:43.555Z,1027.04
2019-03-27T05:56:43.536Z,1027.06
2019-03-27T05:57:43.465Z,1027.05
2019-03-27T05:58:43.420Z,1027.07
2019-03-27T05:59:43.373Z,1027.08
2019-03-27T06:00:43.339Z,1027.13
2019-03-27T06:01:43.314Z,1027.12
2019-03-27T06:02:43.247Z,1027.20
2019-03-27T06:03:43.205Z,1027.15
2019-03-27T06:04:43.151Z,1027.19
2019-03-27T06:05:43.115Z,1027.20
2019-03-27T06:06:43.088Z,1027.18
2019-03-27T06:07:43.021Z,1027.22
2019-03-27T06:08:42.979Z,1027.24
2019-03-27T06:09:42.963Z,1027.28
2019-03-27T06:10:42.894Z,1027.28
2019-03-27T06:11:42.854Z,1027.23
2019-03-27T06:12:42.829Z,1027.26
2019-03-27T06:13:42.761Z,1027.24
2019-03-27T06:14:42.724Z,1027.26
2019-03-27T06:15:45.081Z,1027.26
2019-03-27T06:16:42.655Z,1027.28
2019-03-27T06:17:42.582Z,1027.26
2019-03-27T06:18:42.569Z,1027.26
2019-03-27T06:19:42.496Z,1027.24
2019-03-27T06:20:42.499Z,1027.27
2019-03-27T06:21:42.409Z,1027.27
2019-03-27T06:22:42.366Z,1027.30
2019-03-27T06:23:42.332Z,1027.29
2019-03-27T06:24:42.304Z,1027.29
2019-03-27T06:25:42.301Z,1027.26
2019-03-27T06:26:42.191Z,1027.26
2019-03-27T06:27:42.146Z,1027.31
2019-03-27T06:28:42.111Z,1027.25
2019-03-27T06:29:42.056Z,1027.26
2019-03-27T06:30:42.015Z,1027.30
2019-03-27T06:31:41.986Z,1027.31
2019-03-27T06:32:41.935Z,1027.33
2019-03-27T06:33:41.883Z,1027.34
2019-03-27T06:34:41.849Z,1027.35
2019-03-27T06:35:41.813Z,1027.35
2019-03-27T06:36:41.775Z,1027.40
2019-03-27T06:37:41.705Z,1027.38
2019-03-27T06:38:41.667Z,1027.37
2019-03-27T06:39:41.623Z,1027.41
2019-03-27T06:40:41.586Z,1027.43
2019-03-27T06:41:41.563Z,1027.41
2019-03-27T06:42:41.500Z,1027.47
2019-03-27T06:43:41.455Z,1027.48
2019-03-27T06:44:41.402Z,1027.50
2019-03-27T06:45:41.357Z,1027.51
2019-03-27T06:46:41.342Z,1027.56
2019-03-27T06:47:41.296Z,1027.55
2019-03-27T06:48:41.235Z,1027.57
2019-03-27T06:49:41.179Z,1027.59
2019-03-27T06:50:41.143Z,1027.57
2019-03-27T06:51:41.118Z,1027.55
2019-03-27T06:52:41.089Z,1027.58
2019-03-27T06:53:41.014Z,1027.60
2019-03-27T06:54:40.978Z,1027.61
2019-03-27T06:55:40.930Z,1027.61
2019-03-27T06:56:40.881Z,1027.61
2019-03-27T06:57:40.859Z,1027.67
2019-03-27T06:58:53.623Z,1027.70
2019-03-27T06:59:40.763Z,1027.70
2019-03-27T07:00:40.719Z,1027.69
2019-03-27T07:01:40.679Z,1027.71
2019-03-27T07:02:40.629Z,1027.66
2019-03-27T07:03:40.604Z,1027.78
2019-03-27T07:04:40.657Z,1027.76
2019-03-27T07:05:40.543Z,1027.90
2019-03-27T07:06:40.463Z,1027.90
2019-03-27T07:07:40.429Z,1027.90
2019-03-27T07:08:40.380Z,1027.90
2019-03-27T07:09:42.524Z,1027.93
2019-03-27T07:10:40.300Z,1027.95
2019-03-27T07:11:40.303Z,1027.98
2019-03-27T07:12:40.248Z,1028.06
2019-03-27T07:13:40.224Z,1028.04
2019-03-27T07:14:40.130Z,1028.05
2019-03-27T07:15:40.094Z,1028.08
2019-03-27T07:16:40.044Z,1028.08
2019-03-27T07:17:40.006Z,1028.10
2019-03-27T07:18:40.714Z,1028.09
2019-03-27T07:19:39.954Z,1028.11
2019-03-27T07:20:41.159Z,1028.14
2019-03-27T07:21:39.873Z,1028.13
2019-03-27T07:22:39.822Z,1028.16
2019-03-27T07:23:39.809Z,1028.14
2019-03-27T07:24:39.750Z,1028.08
2019-03-27T07:25:39.697Z,1028.13
2019-03-27T07:26:39.709Z,1028.15
2019-03-27T07:27:39.618Z,1028.19
2019-03-27T07:28:39.589Z,1028.22
2019-03-27T07:29:39.554Z,1028.26
2019-03-27T07:30:39.507Z,1028.23
2019-03-27T07:31:39.457Z,1028.34
2019-03-27T07:32:39.425Z,1028.35
2019-03-27T07:33:39.407Z,1028.34
2019-03-27T07:34:39.382Z,1028.37
2019-03-27T07:35:39.409Z,1028.08
2019-03-27T07:36:39.271Z,1028.03
2019-03-27T07:37:39.247Z,1028.06
2019-03-27T07:38:39.189Z,1028.11
2019-03-27T07:39:39.188Z,1027.99
2019-03-27T07:40:39.273Z,1027.99
2019-03-27T07:41:39.092Z,1027.94
2019-03-27T07:42:39.035Z,1027.96
2019-03-27T07:43:39.009Z,1027.97
2019-03-27T07:44:38.964Z,1028.00
2019-03-27T07:45:39.009Z,1027.99
2019-03-27T07:46:38.885Z,1027.99
2019-03-27T07:47:38.850Z,1028.01
2019-03-27T07:48:38.811Z,1027.99
2019-03-27T07:49:38.768Z,1027.99
2019-03-27T07:50:38.738Z,1028.03
2019-03-27T07:51:38.721Z,1028.01
2019-03-27T07:52:38.641Z,1028.04
2019-03-27T07:53:38.611Z,1028.42
2019-03-27T07:54:38.570Z,1028.19
2019-03-27T07:55:38.534Z,1028.10
2019-03-27T07:56:38.536Z,1028.17
2019-03-27T07:57:38.458Z,1028.93
2019-03-27T07:58:38.426Z,1028.89
2019-03-27T07:59:38.387Z,1029.04
2019-03-27T08:00:38.335Z,1029.10
2019-03-27T08:01:38.333Z,1028.99
2019-03-27T08:02:38.246Z,1028.61
2019-03-27T08:03:38.218Z,1028.28
2019-03-27T08:04:38.201Z,1028.49
2019-03-27T08:05:38.147Z,1028.35
2019-03-27T08:06:38.151Z,1028.51
2019-03-27T08:07:38.071Z,1028.27
2019-03-27T08:08:38.043Z,1028.42
2019-03-27T08:09:38.000Z,1028.34
2019-03-27T08:10:37.958Z,1028.15
2019-03-27T08:11:38.083Z,1028.32
2019-03-27T08:12:37.904Z,1028.12
2019-03-27T08:13:37.839Z,1028.10
2019-03-27T08:14:37.795Z,1028.05
2019-03-27T08:15:40.689Z,1028.05
2019-03-27T08:16:37.739Z,1028.06
2019-03-27T08:17:37.684Z,1028.03
2019-03-27T08:18:37.680Z,1028.04
2019-03-27T08:19:37.615Z,1028.01
2019-03-27T08:20:37.576Z,1027.99
2019-03-27T08:21:37.538Z,1028.01
2019-03-27T08:22:37.505Z,1027.95
2019-03-27T08:23:37.480Z,1027.94
2019-03-27T08:24:37.422Z,1027.94
2019-03-27T08:25:37.404Z,1027.99
2019-03-27T08:26:37.339Z,1028.04
2019-03-27T08:27:37.310Z,1028.05
2019-03-27T08:28:37.276Z,1028.03
2019-03-27T08:29:37.239Z,1028.07
2019-03-27T08:30:37.191Z,1028.06
2019-03-27T08:31:37.136Z,1028.07
2019-03-27T08:32:37.638Z,1028.11
2019-03-27T08:33:37.057Z,1028.13
2019-03-27T08:34:37.054Z,1028.15
2019-03-27T08:35:36.976Z,1028.18
2019-03-27T08:36:36.941Z,1028.11
2019-03-27T08:37:36.929Z,1028.11
2019-03-27T08:38:36.877Z,1028.11
2019-03-27T08:39:36.824Z,1028.15
2019-03-27T08:40:36.806Z,1028.20
2019-03-27T08:41:36.746Z,1028.90
2019-03-27T08:42:36.706Z,1029.04
2019-03-27T08:43:36.675Z,1029.12
2019-03-27T08:44:36.636Z,1029.09
2019-03-27T08:45:36.638Z,1029.06
2019-03-27T08:46:36.572Z,1029.03
2019-03-27T08:47:36.507Z,1029.01
2019-03-27T08:48:39.107Z,1029.00
2019-03-27T08:49:36.443Z,1029.10
2019-03-27T08:50:36.437Z,1029.05
2019-03-27T08:51:36.377Z,1029.07
2019-03-27T08:52:36.323Z,1029.05
2019-03-27T08:53:36.279Z,1028.90
2019-03-27T08:54:36.236Z,1029.13
2019-03-27T08:55:36.197Z,1029.16
2019-03-27T08:56:36.193Z,1029.13
2019-03-27T08:57:36.123Z,1028.91
2019-03-27T08:58:36.124Z,1028.62
2019-03-27T08:59:36.066Z,1028.43
2019-03-27T09:00:36.017Z,1028.46
2019-03-27T09:01:36.022Z,1028.44
2019-03-27T09:02:35.953Z,1028.37
2019-03-27T09:03:35.920Z,1028.44
2019-03-27T09:04:35.879Z,1028.38
2019-03-27T09:05:35.834Z,1028.37
2019-03-27T09:06:35.837Z,1028.41
2019-03-27T09:07:35.773Z,1028.39
2019-03-27T09:08:35.734Z,1028.39
2019-03-27T09:09:35.689Z,1028.37
2019-03-27T09:10:35.659Z,1028.37
2019-03-27T09:11:35.606Z,1028.41
2019-03-27T09:12:35.604Z,1028.44
2019-03-27T09:13:35.543Z,1028.43
2019-03-27T09:14:35.505Z,1028.41
2019-03-27T09:15:35.469Z,1028.40
2019-03-27T09:16:35.414Z,1028.40
2019-03-27T09:17:35.407Z,1028.38
2019-03-27T09:18:35.347Z,1028.36
2019-03-27T09:19:36.364Z,1028.36
2019-03-27T09:20:35.302Z,1028.33
2019-03-27T09:21:35.233Z,1028.33
2019-03-27T09:22:35.208Z,1028.35
2019-03-27T09:23:35.156Z,1028.31
2019-03-27T09:24:35.133Z,1028.34
2019-03-27T09:25:35.089Z,1028.33
2019-03-27T09:26:35.059Z,1028.36
2019-03-27T09:27:35.000Z,1028.36
2019-03-27T09:28:34.995Z,1028.36
2019-03-27T09:29:34.934Z,1028.38
2019-03-27T09:30:34.887Z,1028.41
2019-03-27T09:31:44.842Z,1028.41
2019-03-27T09:32:34.817Z,1028.36
2019-03-27T09:33:34.806Z,1028.39
2019-03-27T09:34:34.725Z,1028.40
2019-03-27T09:35:34.676Z,1028.37
2019-03-27T09:36:34.649Z,1028.36
2019-03-27T09:37:34.632Z,1028.42
2019-03-27T09:38:34.568Z,1028.45
2019-03-27T09:39:34.566Z,1028.44
2019-03-27T09:40:34.477Z,1028.45
2019-03-27T09:41:34.441Z,1028.46
2019-03-27T09:42:34.414Z,1028.52
2019-03-27T09:43:34.398Z,1028.54
2019-03-27T09:44:34.353Z,1028.51
2019-03-27T09:45:34.288Z,1028.67
2019-03-27T09:46:34.260Z,1028.62
2019-03-27T09:47:34.831Z,1028.62
2019-03-27T09:48:34.202Z,1028.70
2019-03-27T09:49:34.170Z,1028.54
2019-03-27T09:50:34.154Z,1028.55
2019-03-27T09:51:34.294Z,1028.57
2019-03-27T09:52:34.381Z,1028.55
2019-03-27T09:53:34.160Z,1028.56
2019-03-27T09:54:33.985Z,1028.54
2019-03-27T09:55:33.887Z,1028.59
2019-03-27T09:56:33.886Z,1028.54
2019-03-27T09:57:33.823Z,1028.57
2019-03-27T09:58:33.812Z,1028.57
2019-03-27T09:59:33.747Z,1028.56
2019-03-27T10:00:33.749Z,1028.52
2019-03-27T10:01:33.690Z,1028.51
2019-03-27T10:02:33.720Z,1028.53
2019-03-27T10:03:33.574Z,1028.48
2019-03-27T10:04:33.583Z,1028.49
2019-03-27T10:05:33.533Z,1028.47
2019-03-27T10:06:33.550Z,1028.42
2019-03-27T10:07:33.488Z,1028.47
2019-03-27T10:08:33.441Z,1028.42
2019-03-27T10:09:33.381Z,1028.40
2019-03-27T10:10:33.302Z,1028.47
2019-03-27T10:11:33.270Z,1028.42
2019-03-27T10:12:33.231Z,1028.41
2019-03-27T10:13:33.188Z,1028.43
2019-03-27T10:14:33.196Z,1028.44
2019-03-27T10:15:33.125Z,1028.45
2019-03-27T10:16:33.068Z,1028.45
2019-03-27T10:17:33.063Z,1028.44
2019-03-27T10:18:33.005Z,1028.44
2019-03-27T10:19:32.984Z,1028.47
2019-03-27T10:20:32.946Z,1028.46
2019-03-27T10:21:32.904Z,1028.48
2019-03-27T10:22:32.870Z,1028.52
2019-03-27T10:23:32.838Z,1028.55
2019-03-27T10:24:32.808Z,1028.53
2019-03-27T10:25:32.774Z,1028.52
2019-03-27T10:26:32.708Z,1028.51
2019-03-27T10:27:32.653Z,1028.50
2019-03-27T10:28:32.644Z,1028.53
2019-03-27T10:29:32.598Z,1028.52
2019-03-27T10:30:32.565Z,1028.52
2019-03-27T10:31:32.499Z,1028.47
2019-03-27T10:32:32.469Z,1028.49
2019-03-27T10:33:32.428Z,1028.49
2019-03-27T10:34:32.371Z,1028.51
2019-03-27T10:35:32.373Z,1028.50
2019-03-27T10:36:32.330Z,1028.53
2019-03-27T10:37:32.260Z,1028.56
2019-03-27T10:38:32.219Z,1028.60
2019-03-27T10:39:32.237Z,1028.57
2019-03-27T10:40:32.213Z,1028.62
2019-03-27T10:41:32.173Z,1028.64
2019-03-27T10:42:32.142Z,1028.63
2019-03-27T10:43:32.046Z,1028.66
2019-03-27T10:44:32.035Z,1028.66
2019-03-27T10:45:31.998Z,1028.60
2019-03-27T10:46:31.965Z,1028.67
2019-03-27T10:47:31.927Z,1028.71
2019-03-27T10:48:31.846Z,1028.71
2019-03-27T10:49:34.407Z,1028.73
2019-03-27T10:50:31.783Z,1028.68
2019-03-27T10:51:31.722Z,1028.73
2019-03-27T10:52:31.696Z,1028.71
2019-03-27T10:53:31.700Z,1028.72
2019-03-27T10:54:32.328Z,1028.83
2019-03-27T10:55:34.383Z,1028.71
2019-03-27T10:56:31.552Z,1028.71
2019-03-27T10:57:31.521Z,1028.76
2019-03-27T10:58:31.453Z,1028.80
2019-03-27T10:59:31.403Z,1028.79
2019-03-27T11:00:31.425Z,1028.79
2019-03-27T11:01:31.344Z,1028.88
2019-03-27T11:02:31.276Z,1028.86
2019-03-27T11:03:31.298Z,1029.00
2019-03-27T11:04:31.292Z,1029.15
2019-03-27T11:05:31.193Z,1028.95
2019-03-27T11:06:31.168Z,1028.94
2019-03-27T11:07:31.126Z,1028.95
2019-03-27T11:08:31.071Z,1029.01
2019-03-27T11:09:31.832Z,1029.12
2019-03-27T11:10:31.028Z,1028.95
2019-03-27T11:11:31.021Z,1028.84
2019-03-27T11:12:31.001Z,1028.81
2019-03-27T11:13:34.155Z,1028.85
2019-03-27T11:14:37.922Z,1028.81
2019-03-27T11:15:30.794Z,1028.74
2019-03-27T11:16:30.793Z,1028.70
2019-03-27T11:17:30.767Z,1028.66
2019-03-27T11:18:30.702Z,1028.63
2019-03-27T11:19:33.387Z,1028.66
2019-03-27T11:20:31.669Z,1028.66
2019-03-27T11:21:30.623Z,1028.63
2019-03-27T11:22:30.577Z,1028.60
2019-03-27T11:23:30.507Z,1028.63
2019-03-27T11:24:30.482Z,1028.64
2019-03-27T11:25:33.155Z,1028.60
2019-03-27T11:26:30.448Z,1028.54
2019-03-27T11:27:30.406Z,1028.51
2019-03-27T11:28:30.359Z,1028.48
2019-03-27T11:29:30.278Z,1028.51
2019-03-27T11:30:30.253Z,1028.51
2019-03-27T11:31:30.208Z,1028.54
2019-03-27T11:32:30.229Z,1028.57
2019-03-27T11:33:30.177Z,1028.53
2019-03-27T11:34:30.116Z,1028.53
2019-03-27T11:35:30.116Z,1028.58
2019-03-27T11:36:30.123Z,1028.50
2019-03-27T11:37:29.986Z,1028.53
2019-03-27T11:38:30.010Z,1028.50
2019-03-27T11:39:29.931Z,1028.51
2019-03-27T11:40:29.889Z,1028.49
2019-03-27T11:41:29.920Z,1028.49
2019-03-27T11:42:29.832Z,1028.50
2019-03-27T11:43:29.798Z,1028.50
2019-03-27T11:44:29.749Z,1028.46
2019-03-27T11:45:29.693Z,1028.45
2019-03-27T11:46:32.037Z,1028.49
2019-03-27T11:47:29.594Z,1028.87
2019-03-27T11:48:29.628Z,1028.50
2019-03-27T11:49:29.539Z,1028.50
2019-03-27T11:50:29.556Z,1028.45
2019-03-27T11:51:29.503Z,1028.48
2019-03-27T11:52:29.970Z,1028.44
2019-03-27T11:53:29.426Z,1028.40
2019-03-27T11:54:29.418Z,1028.45
2019-03-27T11:55:29.383Z,1028.45
2019-03-27T11:56:29.380Z,1028.45
2019-03-27T11:57:29.265Z,1028.48
2019-03-27T11:58:29.266Z,1028.49
2019-03-27T11:59:29.150Z,1028.52
2019-03-27T12:00:29.190Z,1028.58
2019-03-27T12:01:38.916Z,1028.53
2019-03-27T12:02:29.078Z,1028.54
2019-03-27T12:03:29.027Z,1028.52
2019-03-27T12:04:29.073Z,1028.49
2019-03-27T12:05:28.953Z,1028.51
2019-03-27T12:06:28.980Z,1028.51